Time;durP1;ratioP1;P1;durP2;ratioP2;P2;SDS_P1;SDS_P2;PMS_P1;PMS_P2;Temp;Humidity;BMP_temperature;BMP_pressure;BME280_temperature;BME280_humidity;BME280_pressure;Samples;Min_cycle;Max_cycle;Signal;HPM_P1;HPM_P2
2021/06/02 00:00:07;;;;;;;2.45;2.08;;;;;;;;;;4974617;28;20034;-13
2021/06/02 00:02:35;;;;;;;2.42;2.22;;;;;;;;;;4974530;28;20030;-12
2021/06/02 00:05:01;;;;;;;4.90;2.30;;;;;;;;;;4974279;28;20369;-12
2021/06/02 00:07:26;;;;;;;3.30;2.50;;;;;;;;;;4974331;28;20370;-12
2021/06/02 00:09:54;;;;;;;3.55;2.35;;;;;;;;;;4974002;28;20031;-12
2021/06/02 00:12:20;;;;;;;4.03;2.35;;;;;;;;;;4973003;28;20314;-12
2021/06/02 00:14:45;;;;;;;2.08;1.88;;;;;;;;;;4974198;28;20027;-12
2021/06/02 00:17:11;;;;;;;8.45;1.83;;;;;;;;;;4973993;28;20403;-13
2021/06/02 00:19:37;;;;;;;3.15;2.08;;;;;;;;;;4974359;28;20110;-13
2021/06/02 00:22:04;;;;;;;9.93;2.60;;;;;;;;;;4972792;28;20023;-12
2021/06/02 00:24:30;;;;;;;4.22;2.20;;;;;;;;;;4974218;28;20060;-12
2021/06/02 00:26:56;;;;;;;3.72;2.17;;;;;;;;;;4973923;28;20102;-12
2021/06/02 00:29:26;;;;;;;5.68;2.85;;;;;;;;;;4973921;28;20027;-12
2021/06/02 00:31:52;;;;;;;4.35;2.08;;;;;;;;;;4973946;28;20030;-12
2021/06/02 00:34:18;;;;;;;7.15;2.22;;;;;;;;;;4973874;28;20047;-13
2021/06/02 00:36:44;;;;;;;2.47;2.28;;;;;;;;;;4974198;28;20130;-13
2021/06/02 00:39:09;;;;;;;3.63;2.35;;;;;;;;;;4973633;28;20078;-12
2021/06/02 00:41:36;;;;;;;2.25;1.60;;;;;;;;;;4973753;28;20023;-12
2021/06/02 00:44:04;;;;;;;3.80;2.22;;;;;;;;;;4973956;28;20027;-12
2021/06/02 00:46:31;;;;;;;3.35;2.28;;;;;;;;;;4973946;28;20077;-12
2021/06/02 00:48:59;;;;;;;6.10;2.38;;;;;;;;;;4973613;28;20377;-13
2021/06/02 00:51:24;;;;;;;4.38;2.45;;;;;;;;;;4973701;28;20050;-12
2021/06/02 00:53:50;;;;;;;3.78;2.90;;;;;;;;;;4973247;28;20070;-12
2021/06/02 00:56:18;;;;;;;2.33;2.13;;;;;;;;;;4973479;28;20035;-13
2021/06/02 00:58:47;;;;;;;4.75;2.95;;;;;;;;;;4973716;28;20078;-13
2021/06/02 01:01:13;;;;;;;3.00;2.47;;;;;;;;;;4972220;28;20030;-14
2021/06/02 01:03:39;;;;;;;4.80;2.28;;;;;;;;;;4973474;28;20042;-12
2021/06/02 01:06:04;;;;;;;4.80;2.95;;;;;;;;;;4973414;28;20029;-12
2021/06/02 01:08:30;;;;;;;4.93;2.40;;;;;;;;;;4973761;28;20031;-13
2021/06/02 01:10:56;;;;;;;5.07;2.47;;;;;;;;;;4973333;28;20019;-12
2021/06/02 01:13:22;;;;;;;4.55;2.50;;;;;;;;;;4973378;28;20030;-12
2021/06/02 01:15:48;;;;;;;5.18;2.38;;;;;;;;;;4973472;28;20074;-12
2021/06/02 01:18:14;;;;;;;3.45;2.78;;;;;;;;;;4973262;28;20031;-12
2021/06/02 01:20:40;;;;;;;5.78;2.85;;;;;;;;;;4973333;28;20037;-12
2021/06/02 01:23:07;;;;;;;3.15;2.47;;;;;;;;;;4973312;28;20070;-13
2021/06/02 01:25:33;;;;;;;10.02;2.22;;;;;;;;;;4972127;28;20022;-12
2021/06/02 01:27:58;;;;;;;3.35;2.78;;;;;;;;;;4973121;28;20027;-12
2021/06/02 01:30:24;;;;;;;4.97;2.40;;;;;;;;;;4973293;28;20034;-12
2021/06/02 01:32:52;;;;;;;3.75;2.40;;;;;;;;;;4973347;28;20022;-13
2021/06/02 01:35:33;;;;;;;2.78;2.50;;;;;;;;;;4973056;28;20050;-12
2021/06/02 01:38:17;;;;;;;2.65;2.38;;;;;;;;;;4973106;28;20050;-13
2021/06/02 01:40:49;;;;;;;3.20;2.25;;;;;;;;;;4973473;28;20031;-12
2021/06/02 01:43:34;;;;;;;5.30;2.15;;;;;;;;;;4971839;28;20374;-12
2021/06/02 01:46:18;;;;;;;2.35;2.13;;;;;;;;;;4973189;28;20485;-12
2021/06/02 01:48:53;;;;;;;4.55;3.08;;;;;;;;;;4971741;28;20027;-12
2021/06/02 01:51:21;;;;;;;3.45;2.40;;;;;;;;;;4971884;28;20025;-12
2021/06/02 01:54:10;;;;;;;6.30;2.60;;;;;;;;;;4973108;28;20024;-13
2021/06/02 01:56:54;;;;;;;5.50;3.15;;;;;;;;;;4964973;28;20508;-12
2021/06/02 01:59:22;;;;;;;4.65;2.97;;;;;;;;;;4973034;28;20050;-12
2021/06/02 02:02:04;;;;;;;5.47;2.80;;;;;;;;;;4973242;28;20015;-13
2021/06/02 02:04:48;;;;;;;3.72;3.05;;;;;;;;;;4973016;28;20116;-12
2021/06/02 02:07:33;;;;;;;2.28;1.95;;;;;;;;;;4975464;28;20122;-12
2021/06/02 02:10:01;;;;;;;2.78;2.47;;;;;;;;;;4975018;28;20466;-16
2021/06/02 02:12:39;;;;;;;5.68;2.10;;;;;;;;;;4976456;28;20105;-12
2021/06/02 02:15:07;;;;;;;6.18;2.65;;;;;;;;;;4976520;28;20109;-12
2021/06/02 02:17:39;;;;;;;2.65;2.22;;;;;;;;;;4976502;28;20065;-12
2021/06/02 02:20:04;;;;;;;3.90;2.88;;;;;;;;;;4974871;28;20445;-13
2021/06/02 02:22:36;;;;;;;4.57;2.67;;;;;;;;;;4976555;28;20057;-12
2021/06/02 02:25:06;;;;;;;3.00;2.70;;;;;;;;;;4976088;28;20031;-13
2021/06/02 02:27:50;;;;;;;3.05;2.40;;;;;;;;;;4976423;28;20058;-12
2021/06/02 02:30:22;;;;;;;3.25;2.63;;;;;;;;;;4975895;28;20480;-12
2021/06/02 02:32:54;;;;;;;3.20;2.60;;;;;;;;;;4974822;28;20042;-12
2021/06/02 02:35:25;;;;;;;6.47;2.60;;;;;;;;;;4975836;28;20281;-12
2021/06/02 02:37:54;;;;;;;5.55;2.47;;;;;;;;;;4976130;28;20042;-12
2021/06/02 02:40:27;;;;;;;5.03;2.53;;;;;;;;;;4975820;28;20051;-12
2021/06/02 02:43:07;;;;;;;2.85;2.22;;;;;;;;;;4976213;28;20076;-12
2021/06/02 02:45:41;;;;;;;9.38;2.92;;;;;;;;;;4975733;28;20031;-13
2021/06/02 02:48:25;;;;;;;3.58;2.30;;;;;;;;;;4975972;28;20050;-13
2021/06/02 02:51:03;;;;;;;8.13;3.00;;;;;;;;;;4975674;28;20042;-13
2021/06/02 02:53:39;;;;;;;4.65;2.38;;;;;;;;;;4975918;28;20077;-12
2021/06/02 02:56:09;;;;;;;4.18;2.90;;;;;;;;;;4975527;28;20031;-12
2021/06/02 02:58:49;;;;;;;3.78;2.67;;;;;;;;;;4975799;28;20363;-12
2021/06/02 03:01:20;;;;;;;4.65;2.80;;;;;;;;;;4975681;28;20039;-12
2021/06/02 03:03:54;;;;;;;3.72;2.40;;;;;;;;;;4975471;28;20037;-13
2021/06/02 03:06:19;;;;;;;4.43;2.60;;;;;;;;;;4975500;28;20086;-12
2021/06/02 03:09:03;;;;;;;2.72;2.30;;;;;;;;;;4975558;28;20034;-13
2021/06/02 03:11:33;;;;;;;4.30;2.63;;;;;;;;;;4975738;28;20042;-12
2021/06/02 03:14:08;;;;;;;3.00;2.35;;;;;;;;;;4975168;28;20026;-12
2021/06/02 03:16:38;;;;;;;3.15;2.20;;;;;;;;;;4975171;28;20043;-12
2021/06/02 03:19:04;;;;;;;4.78;2.65;;;;;;;;;;4975173;28;20031;-12
2021/06/02 03:21:29;;;;;;;3.42;2.55;;;;;;;;;;4975416;28;20042;-12
2021/06/02 03:24:09;;;;;;;4.63;2.58;;;;;;;;;;4975124;28;20438;-12
2021/06/02 03:26:37;;;;;;;4.95;3.03;;;;;;;;;;4975034;28;20485;-12
2021/06/02 03:29:02;;;;;;;2.80;2.40;;;;;;;;;;4974940;28;20019;-13
2021/06/02 03:31:36;;;;;;;3.22;2.92;;;;;;;;;;4975037;28;20069;-13
2021/06/02 03:34:02;;;;;;;3.35;2.50;;;;;;;;;;4974924;28;20043;-12
2021/06/02 03:36:28;;;;;;;3.58;2.95;;;;;;;;;;4974744;28;20504;-13
2021/06/02 03:39:04;;;;;;;4.20;2.15;;;;;;;;;;4974835;28;20034;-12
2021/06/02 03:41:44;;;;;;;2.83;2.28;;;;;;;;;;4974699;28;20492;-12
2021/06/02 03:44:28;;;;;;;5.07;2.35;;;;;;;;;;4974733;28;20035;-13
2021/06/02 03:47:12;;;;;;;4.15;2.53;;;;;;;;;;4974625;28;20081;-12
2021/06/02 03:50:09;;;;;;;6.75;2.35;;;;;;;;;;4974766;28;20085;-12
2021/06/02 03:52:46;;;;;;;4.28;2.90;;;;;;;;;;4941825;28;20388;-12
2021/06/02 03:55:14;;;;;;;4.63;2.67;;;;;;;;;;4974597;28;20066;-12
2021/06/02 03:57:43;;;;;;;3.60;2.63;;;;;;;;;;4974529;28;20047;-12
2021/06/02 04:00:12;;;;;;;4.18;2.42;;;;;;;;;;4974643;28;20089;-12
2021/06/02 04:02:57;;;;;;;9.10;2.63;;;;;;;;;;4974407;28;20027;-13
2021/06/02 04:05:23;;;;;;;4.47;3.03;;;;;;;;;;4974380;28;20377;-12
2021/06/02 04:08:07;;;;;;;3.80;2.60;;;;;;;;;;4974543;28;20015;-13
2021/06/02 04:10:45;;;;;;;2.95;2.65;;;;;;;;;;4974584;28;20430;-12
2021/06/02 04:13:29;;;;;;;3.20;2.70;;;;;;;;;;4974086;28;20394;-13
2021/06/02 04:16:07;;;;;;;4.03;2.92;;;;;;;;;;4972781;28;20035;-12
2021/06/02 04:18:34;;;;;;;2.95;2.10;;;;;;;;;;4974409;28;20101;-14
2021/06/02 04:21:00;;;;;;;5.85;2.58;;;;;;;;;;4972695;28;20431;-12
2021/06/02 04:23:27;;;;;;;3.08;2.22;;;;;;;;;;4973124;28;20256;-12
2021/06/02 04:25:53;;;;;;;4.55;3.22;;;;;;;;;;4972715;28;20015;-12
2021/06/02 04:28:19;;;;;;;3.15;2.58;;;;;;;;;;4973700;28;20037;-12
2021/06/02 04:30:48;;;;;;;5.53;2.90;;;;;;;;;;4974055;28;20105;-13
2021/06/02 04:33:15;;;;;;;7.00;2.58;;;;;;;;;;4973763;28;20031;-13
2021/06/02 04:35:42;;;;;;;5.32;2.40;;;;;;;;;;4973725;28;20046;-12
2021/06/02 04:38:08;;;;;;;3.63;2.67;;;;;;;;;;4972518;28;20042;-12
2021/06/02 04:40:36;;;;;;;6.57;2.63;;;;;;;;;;4974002;28;20019;-12
2021/06/02 04:43:02;;;;;;;3.75;2.67;;;;;;;;;;4973791;28;20037;-12
2021/06/02 04:45:30;;;;;;;2.45;2.22;;;;;;;;;;4973796;28;20474;-12
2021/06/02 04:47:56;;;;;;;3.45;2.38;;;;;;;;;;4973504;28;20038;-13
2021/06/02 04:50:22;;;;;;;3.30;2.42;;;;;;;;;;4973726;28;20019;-12
2021/06/02 04:53:05;;;;;;;3.47;2.15;;;;;;;;;;4973545;28;20090;-12
2021/06/02 04:55:34;;;;;;;5.03;2.60;;;;;;;;;;4973939;28;20166;-12
2021/06/02 04:58:05;;;;;;;5.80;2.47;;;;;;;;;;4973383;28;20026;-12
2021/06/02 05:00:50;;;;;;;2.60;2.30;;;;;;;;;;4973835;28;20121;-13
2021/06/02 05:03:34;;;;;;;2.42;2.05;;;;;;;;;;4973615;28;20121;-12
2021/06/02 05:06:19;;;;;;;3.58;2.30;;;;;;;;;;4973384;28;20034;-13
2021/06/02 05:08:50;;;;;;;3.00;2.50;;;;;;;;;;4973503;28;20034;-13
2021/06/02 05:11:16;;;;;;;2.78;2.00;;;;;;;;;;4973429;28;20042;-12
2021/06/02 05:13:47;;;;;;;6.10;2.70;;;;;;;;;;4973598;28;20065;-13
2021/06/02 05:16:18;;;;;;;3.67;2.55;;;;;;;;;;4973446;28;20039;-12
2021/06/02 05:18:44;;;;;;;2.58;2.38;;;;;;;;;;4973486;28;20034;-12
2021/06/02 05:24:18;;;;;;;4.68;2.53;;;;;;;;;;4973562;28;20062;-12
2021/06/02 05:26:44;;;;;;;4.22;2.50;;;;;;;;;;4973443;28;20037;-12
2021/06/02 05:29:15;;;;;;;2.65;2.13;;;;;;;;;;4973094;28;20101;-13
2021/06/02 05:31:49;;;;;;;2.90;2.60;;;;;;;;;;4973407;28;20038;-12
2021/06/02 05:34:21;;;;;;;7.05;3.67;;;;;;;;;;4972985;28;20085;-13
2021/06/02 05:37:05;;;;;;;2.95;2.17;;;;;;;;;;4973218;28;20053;-12
2021/06/02 05:39:46;;;;;;;3.60;2.28;;;;;;;;;;4973062;28;20031;-12
2021/06/02 05:42:41;;;;;;;4.47;2.45;;;;;;;;;;4974554;28;20026;-12
2021/06/02 05:45:25;;;;;;;3.03;2.63;;;;;;;;;;4924107;28;20056;-12
2021/06/02 05:48:02;;;;;;;3.47;2.17;;;;;;;;;;4977145;28;20359;-12
2021/06/02 05:50:28;;;;;;;2.85;2.28;;;;;;;;;;4976869;28;20026;-12
2021/06/02 05:53:02;;;;;;;2.83;2.58;;;;;;;;;;4976822;28;20524;-13
2021/06/02 05:55:31;;;;;;;7.90;2.83;;;;;;;;;;4977053;28;20031;-12
2021/06/02 05:58:15;;;;;;;6.85;2.40;;;;;;;;;;4976750;28;20031;-13
2021/06/02 06:00:52;;;;;;;3.72;2.30;;;;;;;;;;4976658;28;20027;-12
2021/06/02 06:03:33;;;;;;;2.22;2.03;;;;;;;;;;4976589;28;20031;-12
2021/06/02 06:06:01;;;;;;;3.47;2.53;;;;;;;;;;4976500;28;20470;-12
2021/06/02 06:08:39;;;;;;;3.63;2.33;;;;;;;;;;4975234;28;20110;-13
2021/06/02 06:11:23;;;;;;;2.47;2.10;;;;;;;;;;4976646;28;20045;-12
2021/06/02 06:13:58;;;;;;;3.25;2.60;;;;;;;;;;4976382;28;20030;-13
2021/06/02 06:16:31;;;;;;;4.18;2.50;;;;;;;;;;4975343;28;20031;-13
2021/06/02 06:18:56;;;;;;;3.45;2.83;;;;;;;;;;4976248;28;20035;-13
2021/06/02 06:21:40;;;;;;;4.63;2.80;;;;;;;;;;4976253;28;20070;-12
2021/06/02 06:24:10;;;;;;;6.60;2.63;;;;;;;;;;4975602;28;20374;-13
2021/06/02 06:26:59;;;;;;;2.75;2.10;;;;;;;;;;4956828;28;20027;-12
2021/06/02 06:29:31;;;;;;;5.18;2.50;;;;;;;;;;4956737;28;20089;-12
2021/06/02 06:31:59;;;;;;;5.80;3.17;;;;;;;;;;4956823;28;20031;-12
2021/06/02 06:34:27;;;;;;;2.75;2.47;;;;;;;;;;4956457;28;20320;-12
2021/06/02 06:36:54;;;;;;;4.15;2.40;;;;;;;;;;4956944;29;20042;-12
2021/06/02 06:39:31;;;;;;;4.40;2.90;;;;;;;;;;4956798;28;20027;-12
2021/06/02 06:41:59;;;;;;;3.55;2.33;;;;;;;;;;4956586;29;20073;-13
2021/06/02 06:44:25;;;;;;;2.47;2.20;;;;;;;;;;4955354;29;20356;-12
2021/06/02 06:46:53;;;;;;;4.53;2.85;;;;;;;;;;4956820;28;20031;-13
2021/06/02 06:49:19;;;;;;;2.40;2.20;;;;;;;;;;4956536;28;20019;-13
2021/06/02 06:51:52;;;;;;;5.70;2.33;;;;;;;;;;4955884;28;20035;-12
2021/06/02 06:54:18;;;;;;;3.30;2.20;;;;;;;;;;4956686;28;20031;-12
2021/06/02 06:56:44;;;;;;;3.13;2.47;;;;;;;;;;4956508;28;20089;-12
2021/06/02 06:59:10;;;;;;;5.72;2.80;;;;;;;;;;4956480;28;20031;-13
2021/06/02 07:01:37;;;;;;;2.88;2.40;;;;;;;;;;4955049;29;20046;-12
2021/06/02 07:04:03;;;;;;;4.25;2.33;;;;;;;;;;4956079;28;20490;-12
2021/06/02 07:06:29;;;;;;;2.92;2.17;;;;;;;;;;4956297;28;20015;-13
2021/06/02 07:08:55;;;;;;;3.83;2.58;;;;;;;;;;4954737;29;20037;-13
2021/06/02 07:11:21;;;;;;;3.60;2.47;;;;;;;;;;4956089;29;20098;-12
2021/06/02 07:13:47;;;;;;;3.35;2.28;;;;;;;;;;4956101;28;20661;-13
2021/06/02 07:16:13;;;;;;;7.40;2.92;;;;;;;;;;4956080;28;20062;-13
2021/06/02 07:18:40;;;;;;;6.40;2.80;;;;;;;;;;4956292;28;20071;-13
2021/06/02 07:21:06;;;;;;;7.22;3.03;;;;;;;;;;4956149;28;20019;-13
2021/06/02 07:23:32;;;;;;;4.40;2.78;;;;;;;;;;4956150;28;20061;-12
2021/06/02 07:25:58;;;;;;;2.95;2.10;;;;;;;;;;4956141;28;20039;-12
2021/06/02 07:28:33;;;;;;;3.17;2.10;;;;;;;;;;4955685;28;20035;-14
2021/06/02 07:30:58;;;;;;;3.45;2.47;;;;;;;;;;4955656;29;20046;-12
2021/06/02 07:33:23;;;;;;;3.20;2.42;;;;;;;;;;4955966;28;20454;-13
2021/06/02 07:35:49;;;;;;;5.90;2.28;;;;;;;;;;4954193;29;20074;-12
2021/06/02 07:38:14;;;;;;;7.25;2.55;;;;;;;;;;4955531;29;20043;-13
2021/06/02 07:40:40;;;;;;;7.63;2.47;;;;;;;;;;4955714;29;20106;-13
2021/06/02 07:43:05;;;;;;;2.75;2.45;;;;;;;;;;4955456;29;20537;-13
2021/06/02 07:45:30;;;;;;;4.32;2.38;;;;;;;;;;4955659;29;20045;-12
2021/06/02 07:47:56;;;;;;;3.05;2.33;;;;;;;;;;4955691;28;20031;-12
2021/06/02 07:50:21;;;;;;;2.65;2.00;;;;;;;;;;4955335;28;20019;-12
2021/06/02 07:52:46;;;;;;;3.95;2.42;;;;;;;;;;4955179;29;20023;-14
2021/06/02 07:55:12;;;;;;;3.08;2.03;;;;;;;;;;4955527;29;20123;-12
2021/06/02 07:57:39;;;;;;;3.33;2.15;;;;;;;;;;4955042;28;20054;-13
2021/06/02 08:00:05;;;;;;;3.45;2.15;;;;;;;;;;4954961;28;20031;-13
2021/06/02 08:02:37;;;;;;;3.17;2.80;;;;;;;;;;4955210;28;20063;-12
2021/06/02 08:05:03;;;;;;;4.53;2.20;;;;;;;;;;4954458;28;20066;-12
2021/06/02 08:07:28;;;;;;;3.95;2.25;;;;;;;;;;4954960;28;20093;-13
2021/06/02 08:09:54;;;;;;;5.00;2.50;;;;;;;;;;4955004;29;20119;-12
2021/06/02 08:12:19;;;;;;;2.83;2.08;;;;;;;;;;4954890;28;20059;-13
2021/06/02 08:14:44;;;;;;;3.67;2.25;;;;;;;;;;4955175;29;20062;-13
2021/06/02 08:17:10;;;;;;;4.63;2.72;;;;;;;;;;4954625;29;20031;-12
2021/06/02 08:19:35;;;;;;;2.65;2.33;;;;;;;;;;4954778;29;20035;-13
2021/06/02 08:22:01;;;;;;;4.55;2.30;;;;;;;;;;4954977;28;20027;-12
2021/06/02 08:24:26;;;;;;;4.72;2.20;;;;;;;;;;4954672;29;20035;-13
2021/06/02 08:26:51;;;;;;;2.65;2.20;;;;;;;;;;4954794;28;20023;-12
2021/06/02 08:29:17;;;;;;;3.80;2.53;;;;;;;;;;4954478;28;20100;-13
2021/06/02 08:31:43;;;;;;;3.58;2.58;;;;;;;;;;4954743;28;20094;-13
2021/06/02 08:34:08;;;;;;;3.95;2.80;;;;;;;;;;4954536;28;20050;-13
2021/06/02 08:36:34;;;;;;;3.67;2.05;;;;;;;;;;4954465;29;20558;-13
2021/06/02 08:38:59;;;;;;;3.42;2.10;;;;;;;;;;4954723;29;20035;-13
2021/06/02 08:41:25;;;;;;;2.58;1.90;;;;;;;;;;4954715;28;20023;-13
2021/06/02 08:43:50;;;;;;;3.25;1.63;;;;;;;;;;4954684;29;20031;-13
2021/06/02 08:46:16;;;;;;;3.55;2.40;;;;;;;;;;4954454;28;20477;-12
2021/06/02 08:48:43;;;;;;;5.45;2.03;;;;;;;;;;4954340;28;20031;-13
2021/06/02 08:51:09;;;;;;;4.40;2.35;;;;;;;;;;4954437;28;20018;-13
2021/06/02 08:53:34;;;;;;;4.90;2.35;;;;;;;;;;4954606;29;20035;-12
2021/06/02 08:56:02;;;;;;;3.38;2.63;;;;;;;;;;4954263;29;20347;-12
2021/06/02 08:58:28;;;;;;;2.42;2.05;;;;;;;;;;4954064;28;20039;-13
2021/06/02 09:00:53;;;;;;;2.40;1.88;;;;;;;;;;4954242;28;20513;-13
2021/06/02 09:03:19;;;;;;;4.07;2.55;;;;;;;;;;4954486;28;20047;-12
2021/06/02 09:05:44;;;;;;;5.18;3.15;;;;;;;;;;4954281;28;20063;-12
2021/06/02 09:08:12;;;;;;;2.83;2.10;;;;;;;;;;4954134;28;20027;-13
2021/06/02 09:10:39;;;;;;;4.82;3.55;;;;;;;;;;4954531;28;20436;-12
2021/06/02 09:13:13;;;;;;;4.25;3.33;;;;;;;;;;4954092;28;20059;-12
2021/06/02 09:15:38;;;;;;;5.03;2.83;;;;;;;;;;4956099;28;20035;-12
2021/06/02 09:18:04;;;;;;;4.93;3.08;;;;;;;;;;4957912;28;20034;-13
2021/06/02 09:20:31;;;;;;;4.53;3.40;;;;;;;;;;4958439;28;20075;-12
2021/06/02 09:22:57;;;;;;;3.80;2.40;;;;;;;;;;4956950;29;20023;-12
2021/06/02 09:25:23;;;;;;;5.70;3.10;;;;;;;;;;4957773;29;20054;-12
2021/06/02 09:27:52;;;;;;;3.75;2.28;;;;;;;;;;4956986;29;20027;-13
2021/06/02 09:30:21;;;;;;;8.00;2.95;;;;;;;;;;4957721;28;20036;-13
2021/06/02 09:32:48;;;;;;;6.70;3.13;;;;;;;;;;4958182;28;20367;-12
2021/06/02 09:35:15;;;;;;;8.82;3.30;;;;;;;;;;4957687;28;20048;-13
2021/06/02 09:37:50;;;;;;;4.68;2.75;;;;;;;;;;4957662;28;20428;-12
2021/06/02 09:40:26;;;;;;;4.25;2.50;;;;;;;;;;4957610;28;20146;-13
2021/06/02 09:42:52;;;;;;;3.38;2.40;;;;;;;;;;4958037;28;20117;-13
2021/06/02 09:45:17;;;;;;;7.10;3.05;;;;;;;;;;4957535;28;20015;-14
2021/06/02 09:47:47;;;;;;;5.28;3.75;;;;;;;;;;4957799;29;20038;-12
2021/06/02 09:50:13;;;;;;;6.82;5.22;;;;;;;;;;4957768;28;20081;-13
2021/06/02 09:52:49;;;;;;;4.97;3.42;;;;;;;;;;4957459;28;20062;-12
2021/06/02 09:55:25;;;;;;;5.38;3.55;;;;;;;;;;4957495;28;20035;-13
2021/06/02 09:58:10;;;;;;;6.28;3.55;;;;;;;;;;4957595;28;20394;-12
2021/06/02 10:00:55;;;;;;;4.18;3.72;;;;;;;;;;4957538;28;20031;-12
2021/06/02 10:03:27;;;;;;;5.80;3.75;;;;;;;;;;4957542;28;20466;-12
2021/06/02 10:05:53;;;;;;;3.45;2.65;;;;;;;;;;4955959;29;20037;-12
2021/06/02 10:08:28;;;;;;;4.47;3.78;;;;;;;;;;4957083;28;20082;-13
2021/06/02 10:10:53;;;;;;;3.83;2.08;;;;;;;;;;4957451;29;20031;-13
2021/06/02 10:13:20;;;;;;;4.35;3.25;;;;;;;;;;4957360;28;20027;-13
2021/06/02 10:15:47;;;;;;;3.30;3.00;;;;;;;;;;4939851;29;20031;-13
2021/06/02 10:18:29;;;;;;;5.85;3.58;;;;;;;;;;4957047;28;20031;-12
2021/06/02 10:21:20;;;;;;;3.20;1.77;;;;;;;;;;4957306;28;20028;-14
2021/06/02 10:23:46;;;;;;;4.05;3.28;;;;;;;;;;4954968;29;20039;-12
2021/06/02 10:26:12;;;;;;;3.08;2.78;;;;;;;;;;4956434;28;20529;-12
2021/06/02 10:28:38;;;;;;;7.00;2.25;;;;;;;;;;4956340;28;20061;-12
2021/06/02 10:31:05;;;;;;;5.80;1.00;;;;;;;;;;4956893;28;20050;-12
2021/06/02 10:33:31;;;;;;;5.35;2.75;;;;;;;;;;4956606;28;20126;-13
2021/06/02 10:35:57;;;;;;;7.22;3.25;;;;;;;;;;4956972;28;20039;-13
2021/06/02 10:38:23;;;;;;;5.53;3.00;;;;;;;;;;4956474;28;20581;-13
2021/06/02 10:40:49;;;;;;;2.97;2.55;;;;;;;;;;4956682;28;20019;-12
2021/06/02 10:43:23;;;;;;;4.00;2.35;;;;;;;;;;4956839;28;20042;-13
2021/06/02 10:46:04;;;;;;;3.53;2.85;;;;;;;;;;4956900;28;20039;-12
2021/06/02 10:48:39;;;;;;;3.25;2.40;;;;;;;;;;4956533;28;20027;-13
2021/06/02 10:51:04;;;;;;;3.80;2.25;;;;;;;;;;4956425;28;20070;-13
2021/06/02 10:53:30;;;;;;;2.35;1.38;;;;;;;;;;4956719;28;20046;-13
2021/06/02 10:55:57;;;;;;;2.80;2.50;;;;;;;;;;4956405;28;20513;-13
2021/06/02 10:58:22;;;;;;;5.20;3.30;;;;;;;;;;4956124;28;20063;-13
2021/06/02 11:00:49;;;;;;;3.00;2.50;;;;;;;;;;4956337;29;20128;-13
2021/06/02 11:03:18;;;;;;;9.05;2.55;;;;;;;;;;4956230;28;20046;-12
2021/06/02 11:05:43;;;;;;;3.47;2.28;;;;;;;;;;4956102;28;20027;-12
2021/06/02 11:08:09;;;;;;;4.13;2.47;;;;;;;;;;4954787;29;20055;-12
2021/06/02 11:10:34;;;;;;;2.20;1.90;;;;;;;;;;4956458;28;20039;-12
2021/06/02 11:13:00;;;;;;;3.45;2.30;;;;;;;;;;4956301;28;20030;-12
2021/06/02 11:15:35;;;;;;;5.65;2.20;;;;;;;;;;4956278;28;20386;-12
2021/06/02 11:18:10;;;;;;;2.50;2.20;;;;;;;;;;4955808;28;20077;-12
2021/06/02 11:20:46;;;;;;;3.05;2.75;;;;;;;;;;4956236;29;20032;-13
2021/06/02 11:23:12;;;;;;;2.33;2.08;;;;;;;;;;4955858;28;20032;-13
2021/06/02 11:25:39;;;;;;;2.88;1.95;;;;;;;;;;4956106;28;20023;-12
2021/06/02 11:28:05;;;;;;;5.13;2.47;;;;;;;;;;4954683;29;20032;-13
2021/06/02 11:30:30;;;;;;;4.30;2.67;;;;;;;;;;4955780;28;20389;-12
2021/06/02 11:32:58;;;;;;;4.35;2.50;;;;;;;;;;4955949;29;20063;-13
2021/06/02 11:35:42;;;;;;;1.75;1.08;;;;;;;;;;4955510;28;20043;-12
2021/06/02 11:38:07;;;;;;;4.25;2.80;;;;;;;;;;4955290;28;20070;-12
2021/06/02 11:40:32;;;;;;;2.10;1.90;;;;;;;;;;4955502;28;20019;-12
2021/06/02 11:42:58;;;;;;;3.00;2.45;;;;;;;;;;4954323;29;20131;-12
2021/06/02 11:45:26;;;;;;;1.08;0.95;;;;;;;;;;4955406;28;20015;-12
2021/06/02 11:47:56;;;;;;;3.58;2.22;;;;;;;;;;4955306;28;20035;-12
2021/06/02 11:50:22;;;;;;;1.25;1.15;;;;;;;;;;4955602;28;20482;-12
2021/06/02 11:52:54;;;;;;;3.08;2.60;;;;;;;;;;4955611;29;20031;-12
2021/06/02 11:55:20;;;;;;;3.25;2.08;;;;;;;;;;4955193;28;20027;-12
2021/06/02 11:57:46;;;;;;;3.78;2.50;;;;;;;;;;4955121;28;20081;-12
2021/06/02 12:00:15;;;;;;;2.72;1.70;;;;;;;;;;4955188;28;20501;-13
2021/06/02 12:02:41;;;;;;;2.58;2.20;;;;;;;;;;4955417;28;20035;-12
2021/06/02 12:05:20;;;;;;;3.80;2.05;;;;;;;;;;4955300;28;20550;-12
2021/06/02 12:07:47;;;;;;;0.73;0.70;;;;;;;;;;4955304;28;20368;-12
2021/06/02 12:10:13;;;;;;;2.80;2.05;;;;;;;;;;4954973;28;20023;-13
2021/06/02 12:12:39;;;;;;;3.20;2.22;;;;;;;;;;4955299;28;20031;-12
2021/06/02 12:15:05;;;;;;;2.95;2.30;;;;;;;;;;4954851;28;20027;-13
2021/06/02 12:17:31;;;;;;;3.35;2.40;;;;;;;;;;4955023;28;20053;-12
2021/06/02 12:19:57;;;;;;;3.25;2.45;;;;;;;;;;4955124;28;20015;-12
2021/06/02 12:22:22;;;;;;;2.65;2.08;;;;;;;;;;4953742;29;20040;-12
2021/06/02 12:25:08;;;;;;;2.03;1.63;;;;;;;;;;4954822;28;20023;-12
2021/06/02 12:27:52;;;;;;;2.85;2.35;;;;;;;;;;4954755;28;20081;-12
2021/06/02 12:30:37;;;;;;;4.13;2.78;;;;;;;;;;4954535;28;20058;-13
2021/06/02 12:33:05;;;;;;;6.32;3.15;;;;;;;;;;4954803;28;20478;-12
2021/06/02 12:35:41;;;;;;;3.58;2.45;;;;;;;;;;4953238;29;20047;-13
2021/06/02 12:38:14;;;;;;;3.78;3.00;;;;;;;;;;4954390;28;20478;-12
2021/06/02 12:40:40;;;;;;;3.35;2.25;;;;;;;;;;4953543;29;20043;-13
2021/06/02 12:43:19;;;;;;;3.47;3.00;;;;;;;;;;4954445;28;20035;-23
2021/06/02 12:45:45;;;;;;;3.60;2.45;;;;;;;;;;4937242;29;20426;-12
2021/06/02 12:48:12;;;;;;;1.58;1.38;;;;;;;;;;4954386;28;20019;-13
2021/06/02 12:50:47;;;;;;;2.72;1.95;;;;;;;;;;4954193;28;20035;-13
2021/06/02 12:53:15;;;;;;;3.33;2.22;;;;;;;;;;4954441;28;20031;-12
2021/06/02 12:55:41;;;;;;;2.92;2.38;;;;;;;;;;4953104;29;20020;-12
2021/06/02 12:58:14;;;;;;;1.20;0.55;;;;;;;;;;4954395;28;20043;-12
2021/06/02 13:00:41;;;;;;;1.58;1.13;;;;;;;;;;4954398;28;20035;-12
2021/06/02 13:03:06;;;;;;;2.83;1.88;;;;;;;;;;4954183;28;20090;-13
2021/06/02 13:05:32;;;;;;;2.03;1.85;;;;;;;;;;4954232;28;20047;-12
2021/06/02 13:08:07;;;;;;;4.25;2.88;;;;;;;;;;4954500;28;20081;-12
2021/06/02 13:10:34;;;;;;;3.55;2.92;;;;;;;;;;4954505;28;20030;-13
2021/06/02 13:13:00;;;;;;;3.50;2.50;;;;;;;;;;4954096;28;20489;-13
2021/06/02 13:15:27;;;;;;;4.85;3.17;;;;;;;;;;4954031;28;20039;-13
2021/06/02 13:17:53;;;;;;;3.63;2.78;;;;;;;;;;4954325;28;20382;-13
2021/06/02 13:20:28;;;;;;;6.07;2.40;;;;;;;;;;4954205;28;20039;-13
2021/06/02 13:23:08;;;;;;;2.55;2.30;;;;;;;;;;4954213;28;20035;-12
2021/06/02 13:25:33;;;;;;;4.35;1.88;;;;;;;;;;4954338;29;20039;-13
2021/06/02 13:27:59;;;;;;;1.55;0.93;;;;;;;;;;4954066;29;20458;-12
2021/06/02 13:30:35;;;;;;;0.98;0.85;;;;;;;;;;4954257;28;20051;-12
2021/06/02 13:33:00;;;;;;;1.90;1.65;;;;;;;;;;4954172;28;20027;-12
2021/06/02 13:38:24;;;;;;;2.42;2.22;;;;;;;;;;5077574;23;20051;-12
2021/06/02 13:40:49;;;;;;;4.53;2.63;;;;;;;;;;4992518;28;20074;-13
2021/06/02 13:43:18;;;;;;;3.35;2.63;;;;;;;;;;4993083;28;20038;-13
2021/06/02 13:45:59;;;;;;;2.72;2.17;;;;;;;;;;4992660;28;20038;-13
2021/06/02 13:48:26;;;;;;;2.33;2.13;;;;;;;;;;4992918;28;20030;-13
2021/06/02 13:51:06;;;;;;;2.33;1.63;;;;;;;;;;4992710;28;20031;-14
2021/06/02 13:53:32;;;;;;;2.78;1.90;;;;;;;;;;4993041;28;20064;-13
2021/06/02 13:55:58;;;;;;;3.72;2.80;;;;;;;;;;4993035;28;20030;-13
2021/06/02 13:58:23;;;;;;;1.65;1.15;;;;;;;;;;4992382;28;20137;-11
2021/06/02 14:00:48;;;;;;;2.35;1.83;;;;;;;;;;5007824;28;20038;-11
2021/06/02 14:03:14;;;;;;;3.75;2.50;;;;;;;;;;4995406;28;20202;-11
2021/06/02 14:05:39;;;;;;;2.25;1.75;;;;;;;;;;4996518;28;20030;-11
2021/06/02 14:08:05;;;;;;;2.13;1.85;;;;;;;;;;4994930;28;20038;-10
2021/06/02 14:10:31;;;;;;;2.40;2.20;;;;;;;;;;4996681;28;20118;-11
2021/06/02 14:12:59;;;;;;;2.97;2.05;;;;;;;;;;4996318;28;20030;-10
2021/06/02 14:15:24;;;;;;;2.92;2.40;;;;;;;;;;4996278;28;20404;-11
2021/06/02 14:17:50;;;;;;;3.28;2.33;;;;;;;;;;4995911;28;20038;-11
2021/06/02 14:20:15;;;;;;;6.32;2.03;;;;;;;;;;4995858;28;20071;-11
2021/06/02 14:22:40;;;;;;;1.60;1.50;;;;;;;;;;4996004;28;20038;-10
2021/06/02 14:25:08;;;;;;;3.28;2.05;;;;;;;;;;5010992;28;20038;-11
2021/06/02 14:27:34;;;;;;;3.08;2.22;;;;;;;;;;4996042;28;20105;-11
2021/06/02 14:29:59;;;;;;;3.95;1.52;;;;;;;;;;4996143;28;20488;-11
2021/06/02 14:32:25;;;;;;;3.05;2.00;;;;;;;;;;4995685;28;20521;-11
2021/06/02 14:34:51;;;;;;;3.20;2.22;;;;;;;;;;4996032;28;20130;-11
2021/06/02 14:37:16;;;;;;;2.40;1.70;;;;;;;;;;4984231;28;20408;-11
2021/06/02 14:39:43;;;;;;;2.92;2.25;;;;;;;;;;4976530;28;20039;-11
2021/06/02 14:42:09;;;;;;;5.90;2.15;;;;;;;;;;4976179;28;20532;-11
2021/06/02 14:44:34;;;;;;;2.17;1.98;;;;;;;;;;4976016;28;20061;-11
2021/06/02 14:47:01;;;;;;;2.40;2.10;;;;;;;;;;4975996;28;20120;-11
2021/06/02 14:49:26;;;;;;;2.65;2.45;;;;;;;;;;4975947;28;20602;-11
2021/06/02 14:51:56;;;;;;;6.80;1.42;;;;;;;;;;4976016;28;20488;-11
2021/06/02 14:54:22;;;;;;;3.28;2.10;;;;;;;;;;4976006;28;20050;-11
2021/06/02 14:56:47;;;;;;;2.90;2.35;;;;;;;;;;4974339;28;20065;-11
2021/06/02 14:59:12;;;;;;;2.60;2.40;;;;;;;;;;4975797;28;20033;-11
2021/06/02 15:01:38;;;;;;;3.40;2.45;;;;;;;;;;4975990;28;20034;-11
2021/06/02 15:04:03;;;;;;;5.10;2.42;;;;;;;;;;4975752;28;20101;-12